KBMT/BMT METAR and TAF weather

Enter ICAO airport designator
Station Type Date Time Source
KBMT METAR 2022/06/27 17:30 UTC NOAA

KBMT 271730Z AUTO 03003KT 10SM CLR 30/23 A3010 RMK AO2 T02970229


Station Type Date Time Source
KBMT Decoded METAR 2022/06/27 17:30 UTC NOAA

Station name not available
Jun 27, 2022 - 01:30 PM EDT / 2022.06.27 1730 UTC
Wind: from the NNE (030 degrees) at 3 MPH (3 KT):0
Visibility: 10 mile(s):0
Sky conditions: clear
Temperature: 85.5 F (29.7 C)
Heat index: 92.3 F (33.5 C):1
Dew Point: 73.2 F (22.9 C)
Relative Humidity: 66%
Pressure (altimeter): 30.1 in. Hg (1019 hPa)
ob: KBMT 271730Z AUTO 03003KT 10SM CLR 30/23 A3010 RMK AO2 T02970229
cycle: 17

Station Type Date Time Source
KBMT TAF UTC NOAA

Error!

Example: see airport list